Vasiliy Bozhenko — URHP — position and weather

sailwx.info

Track history (hours):
 
Tides and Currents Weather Stations Pressure Air Temp Water Temp Dewpoint Dewpoint Depression Visibility Wind Speed Wind Dir Waves Ship Positions

Vasiliy Bozhenko

Last reported at 2017-Jun-17 11:03 UTC. Time now 2017-Jun-22 12:07 UTC.
Position N 46°23' E 030°55'.

Length 114 m; draft 3.9 m.

Type: Cargo ship. MMSI: 272085000.

Date/timePositionNaut miles runAvg speedWind from/ knotsBaromVisibWave heightAir tempDewpointWater temp
2017-Jun-17 11:03N 46°23' E 030°55'1 6.0
2017-Jun-17 10:57N 46°23' E 030°56'3 6.0
2017-Jun-17 10:29N 46°26' E 030°56'3 6.1
2017-Jun-17 09:59N 46°29' E 030°55'25 6.0
2017-Jun-17 05:50N 46°35' E 031°30'9 7.1
2017-Jun-17 04:37N 46°36' E 031°43'1 7.5
2017-Jun-17 04:30N 46°36' E 031°44'4 7.6
2017-Jun-17 04:00N 46°35' E 031°50'4 7.5
2017-Jun-17 03:30N 46°34' E 031°55'4 7.5
2017-Jun-17 03:00N 46°33' E 031°60'4 7.5
2017-Jun-17 02:27N 46°32' E 032°06'3 7.6
2017-Jun-17 02:01N 46°32' E 032°11'4 7.4
2017-Jun-17 01:31N 46°33' E 032°16'4 7.3
2017-Jun-17 01:00N 46°33' E 032°21'4 7.0
2017-Jun-17 00:26N 46°34' E 032°27'121 4.6
2017-Jun-15 22:18N 47°34' E 035°01'2 6.8
2017-Jun-15 22:00N 47°36' E 035°03'4 7.0
2017-Jun-15 21:27N 47°39' E 035°06'3 7.4
2017-Jun-15 21:00N 47°42' E 035°08'3 6.8
2017-Jun-15 20:30N 47°45' E 035°10'3 6.3
2017-Jun-15 20:01N 47°48' E 035°10'0 0.2
2017-Jun-15 19:30N 47°48' E 035°10'0 0.0
2017-Jun-15 19:00N 47°48' E 035°10'0 0.0
2017-Jun-15 18:30N 47°48' E 035°10'1 2.6
2017-Jun-15 18:00N 47°49' E 035°08'3 5.8
2017-Jun-15 17:30N 47°51' E 035°05'1 1.3
2017-Jun-15 16:59N 47°52' E 035°06'0 0.8
2017-Jun-15 16:30N 47°52' E 035°06'1 1.6
2017-Jun-15 16:00N 47°53' E 035°07'0 0.0
2017-Jun-15 15:29N 47°53' E 035°07'0 0.0
2017-Jun-15 14:59N 47°53' E 035°07'0 0.0
2017-Jun-15 13:59N 47°53' E 035°07'0 0.0
2017-Jun-15 13:29N 47°53' E 035°07'0 0.0
2017-Jun-15 12:55N 47°53' E 035°07'0 0.0
2017-Jun-15 12:20N 47°53' E 035°07'0 0.0
2017-Jun-15 11:56N 47°53' E 035°07'0 0.0
2017-Jun-15 11:21N 47°53' E 035°07'0 0.0
2017-Jun-15 10:57N 47°53' E 035°07'0 0.0
2017-Jun-15 10:27N 47°53' E 035°07'0 0.0
2017-Jun-15 09:55N 47°53' E 035°07'0 0.0
2017-Jun-15 09:25N 47°53' E 035°07'0 0.0
2017-Jun-15 08:55N 47°53' E 035°07'0 0.0
2017-Jun-15 08:27N 47°53' E 035°07'0 0.0
2017-Jun-15 07:57N 47°53' E 035°07'0 0.0
2017-Jun-15 07:27N 47°53' E 035°07'0 0.0
2017-Jun-15 06:55N 47°53' E 035°07'0 0.0
2017-Jun-15 06:25N 47°53' E 035°07'0 0.0
2017-Jun-15 05:57N 47°53' E 035°07'0 0.0
2017-Jun-15 05:27N 47°53' E 035°07'0 0.0
2017-Jun-15 04:58N 47°53' E 035°07'0 0.0
2017-Jun-15 04:29N 47°53' E 035°07'0 0.0
2017-Jun-15 03:55N 47°53' E 035°07'0 0.0
2017-Jun-15 03:25N 47°53' E 035°07'0 0.0
2017-Jun-15 02:55N 47°53' E 035°07'0 0.0
2017-Jun-15 02:30N 47°53' E 035°07'0 0.0
2017-Jun-15 01:58N 47°53' E 035°07'0 0.0
2017-Jun-15 01:26N 47°53' E 035°07'0 0.0
2017-Jun-15 00:56N 47°53' E 035°07'0 0.0
2017-Jun-15 00:25N 47°53' E 035°07'0 0.0
2017-Jun-14 23:55N 47°53' E 035°07'0 0.0
2017-Jun-14 23:29N 47°53' E 035°07'0 0.0
2017-Jun-14 22:59N 47°53' E 035°07'0 0.0
2017-Jun-14 22:30N 47°53' E 035°07'0 0.0
2017-Jun-14 21:59N 47°53' E 035°07'0 0.0
2017-Jun-14 21:29N 47°53' E 035°07'0 0.0
2017-Jun-14 20:47N 47°53' E 035°07'0 0.0
2017-Jun-14 20:29N 47°53' E 035°07'0 0.0
2017-Jun-14 19:58N 47°53' E 035°07'0 0.0
2017-Jun-14 19:28N 47°53' E 035°07'0 0.0
2017-Jun-14 18:59N 47°53' E 035°07'0 0.0
2017-Jun-14 18:28N 47°53' E 035°07'0 0.0
2017-Jun-14 17:58N 47°53' E 035°07'0 0.0
2017-Jun-14 17:27N 47°53' E 035°07'0 0.0
2017-Jun-14 16:57N 47°53' E 035°07'0 0.0
2017-Jun-14 16:29N 47°53' E 035°07'0 0.0
2017-Jun-14 15:59N 47°53' E 035°07'0 0.0
2017-Jun-14 15:25N 47°53' E 035°07'0 0.0
2017-Jun-14 14:55N 47°53' E 035°07'0 0.0
2017-Jun-14 13:46N 47°53' E 035°07'0 0.0
2017-Jun-14 13:28N 47°53' E 035°07'0 0.0
2017-Jun-14 12:56N 47°53' E 035°07'0 0.0
2017-Jun-14 12:27N 47°53' E 035°07'0 0.0
2017-Jun-14 11:57N 47°53' E 035°07'0 0.0
2017-Jun-14 11:26N 47°53' E 035°07'0 0.0
2017-Jun-14 10:54N 47°53' E 035°07'0 0.0
2017-Jun-14 10:29N 47°53' E 035°07'0 0.0
2017-Jun-14 09:59N 47°53' E 035°07'0 0.0
2017-Jun-14 09:29N 47°53' E 035°07'0 0.0
2017-Jun-14 08:59N 47°53' E 035°07'0 0.0
2017-Jun-14 08:22N 47°53' E 035°07'0 0.0
2017-Jun-14 07:58N 47°53' E 035°07'0 0.0
2017-Jun-14 07:28N 47°53' E 035°07'0 0.0
2017-Jun-14 06:58N 47°53' E 035°07'0 0.0
2017-Jun-14 06:28N 47°53' E 035°07'0 0.0
2017-Jun-14 05:56N 47°53' E 035°07'0 0.0
2017-Jun-14 05:26N 47°53' E 035°07'0 0.0
2017-Jun-14 05:00N 47°53' E 035°07'0 0.0
2017-Jun-14 04:25N 47°53' E 035°07'0 0.0
2017-Jun-14 03:55N 47°53' E 035°07'0 0.0
2017-Jun-14 03:25N 47°53' E 035°07'0 0.0
2017-Jun-14 02:56N 47°53' E 035°07'0 0.0
2017-Jun-14 02:08N 47°53' E 035°07'0 0.0
2017-Jun-14 01:56N 47°53' E 035°07'0 0.0
2017-Jun-14 01:28N 47°53' E 035°07'0 0.0
2017-Jun-14 00:56N 47°53' E 035°07'0 0.0
2017-Jun-14 00:25N 47°53' E 035°07'0 0.0
2017-Jun-14 00:00N 47°53' E 035°07'0 0.0
2017-Jun-13 23:30N 47°53' E 035°07'0 0.0
2017-Jun-13 22:56N 47°53' E 035°07'0 0.0
2017-Jun-13 22:28N 47°53' E 035°07'0 0.0
2017-Jun-13 21:57N 47°53' E 035°07'0 0.0
2017-Jun-13 21:28N 47°53' E 035°07'0 0.0
2017-Jun-13 20:58N 47°53' E 035°07'0 0.0
2017-Jun-13 20:30N 47°53' E 035°07'0 0.0
2017-Jun-13 19:58N 47°53' E 035°07'0 0.0
2017-Jun-13 19:28N 47°53' E 035°07'0 0.0
2017-Jun-13 18:58N 47°53' E 035°07'0 0.0
2017-Jun-13 18:29N 47°53' E 035°07'0 0.0
2017-Jun-13 17:47N 47°53' E 035°07'0 0.0
2017-Jun-13 17:29N 47°53' E 035°07'0 0.0
2017-Jun-13 16:51N 47°53' E 035°07'0 0.0
2017-Jun-13 16:29N 47°53' E 035°07'0 0.0
2017-Jun-13 16:00N 47°53' E 035°07'0 0.0
2017-Jun-13 15:30N 47°53' E 035°07'0 0.0
2017-Jun-13 14:59N 47°53' E 035°07'0 0.0
2017-Jun-13 14:17N 47°53' E 035°07'0 0.0
2017-Jun-13 13:27N 47°53' E 035°07'0 0.0
2017-Jun-13 12:57N 47°53' E 035°07'0 0.0
2017-Jun-13 12:26N 47°53' E 035°07'0 0.0
2017-Jun-13 11:56N 47°53' E 035°07'0 0.0
2017-Jun-13 11:29N 47°53' E 035°07'0 0.0
2017-Jun-13 10:59N 47°53' E 035°07'0 0.0
2017-Jun-13 10:29N 47°53' E 035°07'0 0.4
2017-Jun-13 09:59N 47°53' E 035°07'1 1.2
2017-Jun-13 09:30N 47°52' E 035°06'1 1.0
2017-Jun-13 08:58N 47°52' E 035°05'1 1.2
2017-Jun-13 08:30N 47°51' E 035°05'3 5.7
2017-Jun-13 08:00N 47°49' E 035°08'2 3.5
2017-Jun-13 07:30N 47°48' E 035°10'4 7.0
2017-Jun-13 07:00N 47°45' E 035°10'4 7.2
2017-Jun-13 06:30N 47°41' E 035°08'4 7.3
2017-Jun-13 06:00N 47°38' E 035°05'4 7.1
2017-Jun-13 05:29N 47°35' E 035°02'125 4.7
2017-Jun-12 02:40N 46°33' E 032°22'2 6.9
2017-Jun-12 02:24N 46°33' E 032°20'3 6.5
2017-Jun-12 01:57N 46°33' E 032°16'3 7.7
2017-Jun-12 01:30N 46°32' E 032°11'4 7.6
2017-Jun-12 01:00N 46°32' E 032°05'4 7.7
2017-Jun-12 00:30N 46°33' E 032°00'4 7.7
2017-Jun-12 00:00N 46°34' E 031°55'4 7.7
2017-Jun-11 23:30N 46°35' E 031°49'4 7.4
2017-Jun-11 23:00N 46°36' E 031°44'4 7.5
2017-Jun-11 22:30N 46°36' E 031°39'4 7.3
2017-Jun-11 21:58N 46°35' E 031°33'  
Track history (hours):
 
Tides and Currents Weather Stations Pressure Air Temp Water Temp Dewpoint Dewpoint Depression Visibility Wind Speed Wind Dir Waves Ship Positions

Vasiliy Bozhenko

Last reported at 2017-Jun-17 11:03 UTC. Time now 2017-Jun-22 12:07 UTC.
Position N 46°23' E 030°55'.

Length 114 m; draft 3.9 m.

Type: Cargo ship. MMSI: 272085000.

Date/timePositionNaut miles runAvg speedWind from/ knotsBaromVisibWave heightAir tempDewpointWater temp
2017-Jun-17 11:03N 46°23' E 030°55'1 6.0
2017-Jun-17 10:57N 46°23' E 030°56'3 6.0
2017-Jun-17 10:29N 46°26' E 030°56'3 6.1
2017-Jun-17 09:59N 46°29' E 030°55'25 6.0
2017-Jun-17 05:50N 46°35' E 031°30'9 7.1
2017-Jun-17 04:37N 46°36' E 031°43'1 7.5
2017-Jun-17 04:30N 46°36' E 031°44'4 7.6
2017-Jun-17 04:00N 46°35' E 031°50'4 7.5
2017-Jun-17 03:30N 46°34' E 031°55'4 7.5
2017-Jun-17 03:00N 46°33' E 031°60'4 7.5
2017-Jun-17 02:27N 46°32' E 032°06'3 7.6
2017-Jun-17 02:01N 46°32' E 032°11'4 7.4
2017-Jun-17 01:31N 46°33' E 032°16'4 7.3
2017-Jun-17 01:00N 46°33' E 032°21'4 7.0
2017-Jun-17 00:26N 46°34' E 032°27'121 4.6
2017-Jun-15 22:18N 47°34' E 035°01'2 6.8
2017-Jun-15 22:00N 47°36' E 035°03'4 7.0
2017-Jun-15 21:27N 47°39' E 035°06'3 7.4
2017-Jun-15 21:00N 47°42' E 035°08'3 6.8
2017-Jun-15 20:30N 47°45' E 035°10'3 6.3
2017-Jun-15 20:01N 47°48' E 035°10'0 0.2
2017-Jun-15 19:30N 47°48' E 035°10'0 0.0
2017-Jun-15 19:00N 47°48' E 035°10'0 0.0
2017-Jun-15 18:30N 47°48' E 035°10'1 2.6
2017-Jun-15 18:00N 47°49' E 035°08'3 5.8
2017-Jun-15 17:30N 47°51' E 035°05'1 1.3
2017-Jun-15 16:59N 47°52' E 035°06'0 0.8
2017-Jun-15 16:30N 47°52' E 035°06'1 1.6
2017-Jun-15 16:00N 47°53' E 035°07'0 0.0
2017-Jun-15 15:29N 47°53' E 035°07'0 0.0
2017-Jun-15 14:59N 47°53' E 035°07'0 0.0
2017-Jun-15 13:59N 47°53' E 035°07'0 0.0
2017-Jun-15 13:29N 47°53' E 035°07'0 0.0
2017-Jun-15 12:55N 47°53' E 035°07'0 0.0
2017-Jun-15 12:20N 47°53' E 035°07'0 0.0
2017-Jun-15 11:56N 47°53' E 035°07'0 0.0
2017-Jun-15 11:21N 47°53' E 035°07'0 0.0
2017-Jun-15 10:57N 47°53' E 035°07'0 0.0
2017-Jun-15 10:27N 47°53' E 035°07'0 0.0
2017-Jun-15 09:55N 47°53' E 035°07'0 0.0
2017-Jun-15 09:25N 47°53' E 035°07'0 0.0
2017-Jun-15 08:55N 47°53' E 035°07'0 0.0
2017-Jun-15 08:27N 47°53' E 035°07'0 0.0
2017-Jun-15 07:57N 47°53' E 035°07'0 0.0
2017-Jun-15 07:27N 47°53' E 035°07'0 0.0
2017-Jun-15 06:55N 47°53' E 035°07'0 0.0
2017-Jun-15 06:25N 47°53' E 035°07'0 0.0
2017-Jun-15 05:57N 47°53' E 035°07'0 0.0
2017-Jun-15 05:27N 47°53' E 035°07'0 0.0
2017-Jun-15 04:58N 47°53' E 035°07'0 0.0
2017-Jun-15 04:29N 47°53' E 035°07'0 0.0
2017-Jun-15 03:55N 47°53' E 035°07'0 0.0
2017-Jun-15 03:25N 47°53' E 035°07'0 0.0
2017-Jun-15 02:55N 47°53' E 035°07'0 0.0
2017-Jun-15 02:30N 47°53' E 035°07'0 0.0
2017-Jun-15 01:58N 47°53' E 035°07'0 0.0
2017-Jun-15 01:26N 47°53' E 035°07'0 0.0
2017-Jun-15 00:56N 47°53' E 035°07'0 0.0
2017-Jun-15 00:25N 47°53' E 035°07'0 0.0
2017-Jun-14 23:55N 47°53' E 035°07'0 0.0
2017-Jun-14 23:29N 47°53' E 035°07'0 0.0
2017-Jun-14 22:59N 47°53' E 035°07'0 0.0
2017-Jun-14 22:30N 47°53' E 035°07'0 0.0
2017-Jun-14 21:59N 47°53' E 035°07'0 0.0
2017-Jun-14 21:29N 47°53' E 035°07'0 0.0
2017-Jun-14 20:47N 47°53' E 035°07'0 0.0
2017-Jun-14 20:29N 47°53' E 035°07'0 0.0
2017-Jun-14 19:58N 47°53' E 035°07'0 0.0
2017-Jun-14 19:28N 47°53' E 035°07'0 0.0
2017-Jun-14 18:59N 47°53' E 035°07'0 0.0
2017-Jun-14 18:28N 47°53' E 035°07'0 0.0
2017-Jun-14 17:58N 47°53' E 035°07'0 0.0
2017-Jun-14 17:27N 47°53' E 035°07'0 0.0
2017-Jun-14 16:57N 47°53' E 035°07'0 0.0
2017-Jun-14 16:29N 47°53' E 035°07'0 0.0
2017-Jun-14 15:59N 47°53' E 035°07'0 0.0
2017-Jun-14 15:25N 47°53' E 035°07'0 0.0
2017-Jun-14 14:55N 47°53' E 035°07'0 0.0
2017-Jun-14 13:46N 47°53' E 035°07'0 0.0
2017-Jun-14 13:28N 47°53' E 035°07'0 0.0
2017-Jun-14 12:56N 47°53' E 035°07'0 0.0
2017-Jun-14 12:27N 47°53' E 035°07'0 0.0
2017-Jun-14 11:57N 47°53' E 035°07'0 0.0
2017-Jun-14 11:26N 47°53' E 035°07'0 0.0
2017-Jun-14 10:54N 47°53' E 035°07'0 0.0
2017-Jun-14 10:29N 47°53' E 035°07'0 0.0
2017-Jun-14 09:59N 47°53' E 035°07'0 0.0
2017-Jun-14 09:29N 47°53' E 035°07'0 0.0
2017-Jun-14 08:59N 47°53' E 035°07'0 0.0
2017-Jun-14 08:22N 47°53' E 035°07'0 0.0
2017-Jun-14 07:58N 47°53' E 035°07'0 0.0
2017-Jun-14 07:28N 47°53' E 035°07'0 0.0
2017-Jun-14 06:58N 47°53' E 035°07'0 0.0
2017-Jun-14 06:28N 47°53' E 035°07'0 0.0
2017-Jun-14 05:56N 47°53' E 035°07'0 0.0
2017-Jun-14 05:26N 47°53' E 035°07'0 0.0
2017-Jun-14 05:00N 47°53' E 035°07'0 0.0
2017-Jun-14 04:25N 47°53' E 035°07'0 0.0
2017-Jun-14 03:55N 47°53' E 035°07'0 0.0
2017-Jun-14 03:25N 47°53' E 035°07'0 0.0
2017-Jun-14 02:56N 47°53' E 035°07'0 0.0
2017-Jun-14 02:08N 47°53' E 035°07'0 0.0
2017-Jun-14 01:56N 47°53' E 035°07'0 0.0
2017-Jun-14 01:28N 47°53' E 035°07'0 0.0
2017-Jun-14 00:56N 47°53' E 035°07'0 0.0
2017-Jun-14 00:25N 47°53' E 035°07'0 0.0
2017-Jun-14 00:00N 47°53' E 035°07'0 0.0
2017-Jun-13 23:30N 47°53' E 035°07'0 0.0
2017-Jun-13 22:56N 47°53' E 035°07'0 0.0
2017-Jun-13 22:28N 47°53' E 035°07'0 0.0
2017-Jun-13 21:57N 47°53' E 035°07'0 0.0
2017-Jun-13 21:28N 47°53' E 035°07'0 0.0
2017-Jun-13 20:58N 47°53' E 035°07'0 0.0
2017-Jun-13 20:30N 47°53' E 035°07'0 0.0
2017-Jun-13 19:58N 47°53' E 035°07'0 0.0
2017-Jun-13 19:28N 47°53' E 035°07'0 0.0
2017-Jun-13 18:58N 47°53' E 035°07'0 0.0
2017-Jun-13 18:29N 47°53' E 035°07'0 0.0
2017-Jun-13 17:47N 47°53' E 035°07'0 0.0
2017-Jun-13 17:29N 47°53' E 035°07'0 0.0
2017-Jun-13 16:51N 47°53' E 035°07'0 0.0
2017-Jun-13 16:29N 47°53' E 035°07'0 0.0
2017-Jun-13 16:00N 47°53' E 035°07'0 0.0
2017-Jun-13 15:30N 47°53' E 035°07'0 0.0
2017-Jun-13 14:59N 47°53' E 035°07'0 0.0
2017-Jun-13 14:17N 47°53' E 035°07'0 0.0
2017-Jun-13 13:27N 47°53' E 035°07'0 0.0
2017-Jun-13 12:57N 47°53' E 035°07'0 0.0
2017-Jun-13 12:26N 47°53' E 035°07'0 0.0
2017-Jun-13 11:56N 47°53' E 035°07'0 0.0
2017-Jun-13 11:29N 47°53' E 035°07'0 0.0
2017-Jun-13 10:59N 47°53' E 035°07'0 0.0
2017-Jun-13 10:29N 47°53' E 035°07'0 0.4
2017-Jun-13 09:59N 47°53' E 035°07'1 1.2
2017-Jun-13 09:30N 47°52' E 035°06'1 1.0
2017-Jun-13 08:58N 47°52' E 035°05'1 1.2
2017-Jun-13 08:30N 47°51' E 035°05'3 5.7
2017-Jun-13 08:00N 47°49' E 035°08'2 3.5
2017-Jun-13 07:30N 47°48' E 035°10'4 7.0
2017-Jun-13 07:00N 47°45' E 035°10'4 7.2
2017-Jun-13 06:30N 47°41' E 035°08'4 7.3
2017-Jun-13 06:00N 47°38' E 035°05'4 7.1
2017-Jun-13 05:29N 47°35' E 035°02'125 4.7
2017-Jun-12 02:40N 46°33' E 032°22'2 6.9
2017-Jun-12 02:24N 46°33' E 032°20'3 6.5
2017-Jun-12 01:57N 46°33' E 032°16'3 7.7
2017-Jun-12 01:30N 46°32' E 032°11'4 7.6
2017-Jun-12 01:00N 46°32' E 032°05'4 7.7
2017-Jun-12 00:30N 46°33' E 032°00'4 7.7
2017-Jun-12 00:00N 46°34' E 031°55'4 7.7
2017-Jun-11 23:30N 46°35' E 031°49'4 7.4
2017-Jun-11 23:00N 46°36' E 031°44'4 7.5
2017-Jun-11 22:30N 46°36' E 031°39'4 7.3
2017-Jun-11 21:58N 46°35' E 031°33'  

Dump ship's entire track history